sensor_id;sensor_type;location;lat;lon;timestamp;temperature;humidity
20143;DHT22;10509;46.476;7.134;2023-11-19T00:00:08;5.90;99.90
20143;DHT22;10509;46.476;7.134;2023-11-19T00:02:39;5.90;99.90
20143;DHT22;10509;46.476;7.134;2023-11-19T00:05:06;5.90;99.90
20143;DHT22;10509;46.476;7.134;2023-11-19T00:07:38;5.90;99.90
20143;DHT22;10509;46.476;7.134;2023-11-19T00:10:11;5.90;99.90
20143;DHT22;10509;46.476;7.134;2023-11-19T00:12:41;5.90;99.90
20143;DHT22;10509;46.476;7.134;2023-11-19T00:15:07;5.90;99.90
20143;DHT22;10509;46.476;7.134;2023-11-19T00:17:37;5.90;99.90
20143;DHT22;10509;46.476;7.134;2023-11-19T00:20:04;5.90;99.90
20143;DHT22;10509;46.476;7.134;2023-11-19T00:22:31;5.90;99.90
20143;DHT22;10509;46.476;7.134;2023-11-19T00:24:57;5.90;99.90
20143;DHT22;10509;46.476;7.134;2023-11-19T00:27:22;5.90;99.90
20143;DHT22;10509;46.476;7.134;2023-11-19T00:29:48;6.00;99.90
20143;DHT22;10509;46.476;7.134;2023-11-19T00:32:14;6.00;99.90
20143;DHT22;10509;46.476;7.134;2023-11-19T00:34:40;6.00;99.90
20143;DHT22;10509;46.476;7.134;2023-11-19T00:37:08;6.00;99.90
20143;DHT22;10509;46.476;7.134;2023-11-19T00:39:34;6.00;99.90
20143;DHT22;10509;46.476;7.134;2023-11-19T00:41:59;6.10;99.90
20143;DHT22;10509;46.476;7.134;2023-11-19T00:44:25;6.10;99.90
20143;DHT22;10509;46.476;7.134;2023-11-19T00:46:51;6.10;99.90
20143;DHT22;10509;46.476;7.134;2023-11-19T00:49:16;6.20;99.90
20143;DHT22;10509;46.476;7.134;2023-11-19T00:51:42;6.20;99.90
20143;DHT22;10509;46.476;7.134;2023-11-19T00:54:07;6.20;99.90
20143;DHT22;10509;46.476;7.134;2023-11-19T00:56:33;6.20;99.90
20143;DHT22;10509;46.476;7.134;2023-11-19T00:58:58;6.20;99.90
20143;DHT22;10509;46.476;7.134;2023-11-19T01:01:25;6.10;99.90
20143;DHT22;10509;46.476;7.134;2023-11-19T01:03:51;6.00;99.90
20143;DHT22;10509;46.476;7.134;2023-11-19T01:06:29;5.90;99.90
20143;DHT22;10509;46.476;7.134;2023-11-19T01:08:56;5.80;99.90
20143;DHT22;10509;46.476;7.134;2023-11-19T01:11:24;5.90;99.90
20143;DHT22;10509;46.476;7.134;2023-11-19T01:13:51;5.90;99.90
20143;DHT22;10509;46.476;7.134;2023-11-19T01:16:17;5.90;99.90
20143;DHT22;10509;46.476;7.134;2023-11-19T01:18:44;5.90;99.90
20143;DHT22;10509;46.476;7.134;2023-11-19T01:21:10;6.00;99.90
20143;DHT22;10509;46.476;7.134;2023-11-19T01:23:36;6.10;99.90
20143;DHT22;10509;46.476;7.134;2023-11-19T01:26:02;6.10;99.90
20143;DHT22;10509;46.476;7.134;2023-11-19T01:28:28;6.10;99.90
20143;DHT22;10509;46.476;7.134;2023-11-19T01:30:54;6.10;99.90
20143;DHT22;10509;46.476;7.134;2023-11-19T01:33:20;6.00;99.90
20143;DHT22;10509;46.476;7.134;2023-11-19T01:35:46;6.00;99.90
20143;DHT22;10509;46.476;7.134;2023-11-19T01:38:12;6.10;99.90
20143;DHT22;10509;46.476;7.134;2023-11-19T01:40:37;6.10;99.90
20143;DHT22;10509;46.476;7.134;2023-11-19T01:43:03;6.10;99.90
20143;DHT22;10509;46.476;7.134;2023-11-19T01:45:30;6.00;99.90
20143;DHT22;10509;46.476;7.134;2023-11-19T01:48:02;6.10;99.90
20143;DHT22;10509;46.476;7.134;2023-11-19T01:50:31;6.10;99.90
20143;DHT22;10509;46.476;7.134;2023-11-19T01:52:57;6.00;99.90
20143;DHT22;10509;46.476;7.134;2023-11-19T01:55:25;5.90;99.90
20143;DHT22;10509;46.476;7.134;2023-11-19T01:57:51;5.90;99.90
20143;DHT22;10509;46.476;7.134;2023-11-19T02:00:18;5.90;99.90
20143;DHT22;10509;46.476;7.134;2023-11-19T02:02:48;5.90;99.90
20143;DHT22;10509;46.476;7.134;2023-11-19T02:05:14;6.00;99.90
20143;DHT22;10509;46.476;7.134;2023-11-19T02:07:40;6.10;99.90
20143;DHT22;10509;46.476;7.134;2023-11-19T02:10:06;6.10;99.90
20143;DHT22;10509;46.476;7.134;2023-11-19T02:12:39;6.20;99.90
20143;DHT22;10509;46.476;7.134;2023-11-19T02:15:09;6.10;99.90
20143;DHT22;10509;46.476;7.134;2023-11-19T02:17:34;6.20;99.90
20143;DHT22;10509;46.476;7.134;2023-11-19T02:20:03;6.20;99.90
20143;DHT22;10509;46.476;7.134;2023-11-19T02:22:31;6.20;99.90
20143;DHT22;10509;46.476;7.134;2023-11-19T02:25:00;6.20;99.90
20143;DHT22;10509;46.476;7.134;2023-11-19T02:27:51;6.20;99.90
20143;DHT22;10509;46.476;7.134;2023-11-19T02:30:21;6.30;99.90
20143;DHT22;10509;46.476;7.134;2023-11-19T02:32:58;6.30;99.90
20143;DHT22;10509;46.476;7.134;2023-11-19T02:35:25;6.30;99.90
20143;DHT22;10509;46.476;7.134;2023-11-19T02:37:51;6.20;99.90
20143;DHT22;10509;46.476;7.134;2023-11-19T02:40:17;6.20;99.90
20143;DHT22;10509;46.476;7.134;2023-11-19T02:42:43;6.30;99.90
20143;DHT22;10509;46.476;7.134;2023-11-19T02:45:08;6.20;99.90
20143;DHT22;10509;46.476;7.134;2023-11-19T02:47:42;6.20;99.90
20143;DHT22;10509;46.476;7.134;2023-11-19T02:50:12;6.20;99.90
20143;DHT22;10509;46.476;7.134;2023-11-19T02:52:41;6.20;99.90
20143;DHT22;10509;46.476;7.134;2023-11-19T02:55:08;6.30;99.90
20143;DHT22;10509;46.476;7.134;2023-11-19T02:57:41;6.30;99.90
20143;DHT22;10509;46.476;7.134;2023-11-19T03:00:22;6.30;99.90
20143;DHT22;10509;46.476;7.134;2023-11-19T03:02:59;6.40;99.90
20143;DHT22;10509;46.476;7.134;2023-11-19T03:05:26;6.40;99.90
20143;DHT22;10509;46.476;7.134;2023-11-19T03:07:52;6.50;99.90
20143;DHT22;10509;46.476;7.134;2023-11-19T03:10:18;6.50;99.90
20143;DHT22;10509;46.476;7.134;2023-11-19T03:12:44;6.60;99.90
20143;DHT22;10509;46.476;7.134;2023-11-19T03:15:11;6.60;99.90
20143;DHT22;10509;46.476;7.134;2023-11-19T03:17:40;6.60;99.90
20143;DHT22;10509;46.476;7.134;2023-11-19T03:20:08;6.70;99.90
20143;DHT22;10509;46.476;7.134;2023-11-19T03:22:40;6.60;99.90
20143;DHT22;10509;46.476;7.134;2023-11-19T03:25:09;6.60;99.90
20143;DHT22;10509;46.476;7.134;2023-11-19T03:27:36;6.60;99.90
20143;DHT22;10509;46.476;7.134;2023-11-19T03:30:03;6.50;99.90
20143;DHT22;10509;46.476;7.134;2023-11-19T03:32:32;6.50;99.90
20143;DHT22;10509;46.476;7.134;2023-11-19T03:34:58;6.50;99.90
20143;DHT22;10509;46.476;7.134;2023-11-19T03:37:26;6.50;99.90
20143;DHT22;10509;46.476;7.134;2023-11-19T03:39:51;6.60;99.90
20143;DHT22;10509;46.476;7.134;2023-11-19T03:42:19;6.60;99.90
20143;DHT22;10509;46.476;7.134;2023-11-19T03:44:46;6.60;99.90
20143;DHT22;10509;46.476;7.134;2023-11-19T03:47:11;6.60;99.90
20143;DHT22;10509;46.476;7.134;2023-11-19T03:49:37;6.70;99.90
20143;DHT22;10509;46.476;7.134;2023-11-19T03:52:03;6.60;99.90
20143;DHT22;10509;46.476;7.134;2023-11-19T03:54:29;6.70;99.90
20143;DHT22;10509;46.476;7.134;2023-11-19T03:56:54;6.70;99.90
20143;DHT22;10509;46.476;7.134;2023-11-19T03:59:20;6.80;99.90
20143;DHT22;10509;46.476;7.134;2023-11-19T04:01:46;6.80;99.90
20143;DHT22;10509;46.476;7.134;2023-11-19T04:04:11;6.80;99.90
20143;DHT22;10509;46.476;7.134;2023-11-19T04:06:37;6.80;99.90
20143;DHT22;10509;46.476;7.134;2023-11-19T04:09:03;6.80;99.90
20143;DHT22;10509;46.476;7.134;2023-11-19T04:11:29;6.80;99.90
20143;DHT22;10509;46.476;7.134;2023-11-19T04:13:54;6.90;99.90
20143;DHT22;10509;46.476;7.134;2023-11-19T04:16:26;6.80;99.90
20143;DHT22;10509;46.476;7.134;2023-11-19T04:18:53;6.80;99.90
20143;DHT22;10509;46.476;7.134;2023-11-19T04:21:18;6.80;99.90
20143;DHT22;10509;46.476;7.134;2023-11-19T04:23:44;6.80;99.90
20143;DHT22;10509;46.476;7.134;2023-11-19T04:26:10;6.80;99.90
20143;DHT22;10509;46.476;7.134;2023-11-19T04:28:35;6.90;99.90
20143;DHT22;10509;46.476;7.134;2023-11-19T04:31:01;6.80;99.90
20143;DHT22;10509;46.476;7.134;2023-11-19T04:33:28;6.80;99.90
20143;DHT22;10509;46.476;7.134;2023-11-19T04:35:54;6.80;99.90
20143;DHT22;10509;46.476;7.134;2023-11-19T04:38:19;6.80;99.90
20143;DHT22;10509;46.476;7.134;2023-11-19T04:40:45;6.80;99.90
20143;DHT22;10509;46.476;7.134;2023-11-19T04:43:11;6.90;99.90
20143;DHT22;10509;46.476;7.134;2023-11-19T04:45:36;7.00;99.90
20143;DHT22;10509;46.476;7.134;2023-11-19T04:48:02;7.00;99.90
20143;DHT22;10509;46.476;7.134;2023-11-19T04:50:28;7.00;99.90
20143;DHT22;10509;46.476;7.134;2023-11-19T04:52:53;7.10;99.90
20143;DHT22;10509;46.476;7.134;2023-11-19T04:55:19;7.10;99.90
20143;DHT22;10509;46.476;7.134;2023-11-19T04:57:44;7.10;99.90
20143;DHT22;10509;46.476;7.134;2023-11-19T05:00:11;7.10;99.90
20143;DHT22;10509;46.476;7.134;2023-11-19T05:02:36;7.20;99.90
20143;DHT22;10509;46.476;7.134;2023-11-19T05:05:03;7.20;99.90
20143;DHT22;10509;46.476;7.134;2023-11-19T05:07:30;7.10;99.90
20143;DHT22;10509;46.476;7.134;2023-11-19T05:09:55;7.20;99.90
20143;DHT22;10509;46.476;7.134;2023-11-19T05:12:21;7.10;99.90
20143;DHT22;10509;46.476;7.134;2023-11-19T05:14:48;7.10;99.90
20143;DHT22;10509;46.476;7.134;2023-11-19T05:17:17;7.00;99.90
20143;DHT22;10509;46.476;7.134;2023-11-19T05:19:46;7.00;99.90
20143;DHT22;10509;46.476;7.134;2023-11-19T05:22:13;7.00;99.90
20143;DHT22;10509;46.476;7.134;2023-11-19T05:24:38;7.00;99.90
20143;DHT22;10509;46.476;7.134;2023-11-19T05:27:04;7.00;99.90
20143;DHT22;10509;46.476;7.134;2023-11-19T05:29:30;7.10;99.90
20143;DHT22;10509;46.476;7.134;2023-11-19T05:31:56;7.10;99.90
20143;DHT22;10509;46.476;7.134;2023-11-19T05:34:21;7.20;99.90
20143;DHT22;10509;46.476;7.134;2023-11-19T05:36:47;7.20;99.90
20143;DHT22;10509;46.476;7.134;2023-11-19T05:39:13;7.20;99.90
20143;DHT22;10509;46.476;7.134;2023-11-19T05:41:38;7.20;99.90
20143;DHT22;10509;46.476;7.134;2023-11-19T05:44:04;7.10;99.90
20143;DHT22;10509;46.476;7.134;2023-11-19T05:46:30;7.20;99.90
20143;DHT22;10509;46.476;7.134;2023-11-19T05:48:55;7.20;99.90
20143;DHT22;10509;46.476;7.134;2023-11-19T05:51:21;7.30;99.90
20143;DHT22;10509;46.476;7.134;2023-11-19T05:53:46;7.30;99.90
20143;DHT22;10509;46.476;7.134;2023-11-19T05:56:12;7.40;99.90
20143;DHT22;10509;46.476;7.134;2023-11-19T05:58:38;7.30;99.90
20143;DHT22;10509;46.476;7.134;2023-11-19T06:01:05;7.40;99.90
20143;DHT22;10509;46.476;7.134;2023-11-19T06:03:32;7.30;99.90
20143;DHT22;10509;46.476;7.134;2023-11-19T06:05:58;7.40;99.90
20143;DHT22;10509;46.476;7.134;2023-11-19T06:08:24;7.40;99.90
20143;DHT22;10509;46.476;7.134;2023-11-19T06:10:52;7.40;99.90
20143;DHT22;10509;46.476;7.134;2023-11-19T06:13:18;7.40;99.90
20143;DHT22;10509;46.476;7.134;2023-11-19T06:15:43;7.40;99.90
20143;DHT22;10509;46.476;7.134;2023-11-19T06:18:09;7.50;99.90
20143;DHT22;10509;46.476;7.134;2023-11-19T06:20:37;7.50;99.90
20143;DHT22;10509;46.476;7.134;2023-11-19T06:23:04;7.50;99.90
20143;DHT22;10509;46.476;7.134;2023-11-19T06:25:29;7.40;99.90
20143;DHT22;10509;46.476;7.134;2023-11-19T06:27:55;7.50;99.90
20143;DHT22;10509;46.476;7.134;2023-11-19T06:30:22;7.40;99.90
20143;DHT22;10509;46.476;7.134;2023-11-19T06:32:47;7.40;99.90
20143;DHT22;10509;46.476;7.134;2023-11-19T06:35:13;7.50;99.90
20143;DHT22;10509;46.476;7.134;2023-11-19T06:37:39;7.50;99.90
20143;DHT22;10509;46.476;7.134;2023-11-19T06:40:06;7.50;99.90
20143;DHT22;10509;46.476;7.134;2023-11-19T06:42:32;7.50;99.90
20143;DHT22;10509;46.476;7.134;2023-11-19T06:44:58;7.50;99.90
20143;DHT22;10509;46.476;7.134;2023-11-19T06:47:27;7.60;99.90
20143;DHT22;10509;46.476;7.134;2023-11-19T06:49:53;7.70;99.90
20143;DHT22;10509;46.476;7.134;2023-11-19T06:52:19;7.60;99.90
20143;DHT22;10509;46.476;7.134;2023-11-19T06:54:45;7.60;99.90
20143;DHT22;10509;46.476;7.134;2023-11-19T06:57:11;7.60;99.90
20143;DHT22;10509;46.476;7.134;2023-11-19T06:59:37;7.70;99.90
20143;DHT22;10509;46.476;7.134;2023-11-19T07:02:03;7.60;99.90
20143;DHT22;10509;46.476;7.134;2023-11-19T07:04:30;7.70;99.90
20143;DHT22;10509;46.476;7.134;2023-11-19T07:06:55;7.70;99.90
20143;DHT22;10509;46.476;7.134;2023-11-19T07:09:21;7.70;99.90
20143;DHT22;10509;46.476;7.134;2023-11-19T07:11:48;7.70;99.90
20143;DHT22;10509;46.476;7.134;2023-11-19T07:14:17;7.70;99.90
20143;DHT22;10509;46.476;7.134;2023-11-19T07:16:43;7.80;99.90
20143;DHT22;10509;46.476;7.134;2023-11-19T07:19:09;7.70;99.90
20143;DHT22;10509;46.476;7.134;2023-11-19T07:21:35;7.80;99.90
20143;DHT22;10509;46.476;7.134;2023-11-19T07:24:05;7.90;99.90
20143;DHT22;10509;46.476;7.134;2023-11-19T07:26:31;7.90;99.90
20143;DHT22;10509;46.476;7.134;2023-11-19T07:28:57;7.90;99.90
20143;DHT22;10509;46.476;7.134;2023-11-19T07:31:23;7.90;99.90
20143;DHT22;10509;46.476;7.134;2023-11-19T07:33:49;7.90;99.90
20143;DHT22;10509;46.476;7.134;2023-11-19T07:36:15;7.90;99.90
20143;DHT22;10509;46.476;7.134;2023-11-19T07:38:42;7.90;99.90
20143;DHT22;10509;46.476;7.134;2023-11-19T07:41:08;8.00;99.90
20143;DHT22;10509;46.476;7.134;2023-11-19T07:43:39;8.00;99.90
20143;DHT22;10509;46.476;7.134;2023-11-19T07:46:11;8.00;99.90
20143;DHT22;10509;46.476;7.134;2023-11-19T07:48:38;7.90;99.90
20143;DHT22;10509;46.476;7.134;2023-11-19T07:51:04;8.00;99.90
20143;DHT22;10509;46.476;7.134;2023-11-19T07:53:30;8.00;99.90
20143;DHT22;10509;46.476;7.134;2023-11-19T07:55:56;8.00;99.90
20143;DHT22;10509;46.476;7.134;2023-11-19T07:58:22;8.00;99.90
20143;DHT22;10509;46.476;7.134;2023-11-19T08:00:47;8.00;99.90
20143;DHT22;10509;46.476;7.134;2023-11-19T08:03:13;8.00;99.90
20143;DHT22;10509;46.476;7.134;2023-11-19T08:05:38;8.00;99.90
20143;DHT22;10509;46.476;7.134;2023-11-19T08:08:04;8.10;99.90
20143;DHT22;10509;46.476;7.134;2023-11-19T08:10:30;8.10;99.90
20143;DHT22;10509;46.476;7.134;2023-11-19T08:12:56;8.10;99.90
20143;DHT22;10509;46.476;7.134;2023-11-19T08:15:21;8.10;99.90
20143;DHT22;10509;46.476;7.134;2023-11-19T08:17:47;8.10;99.90
20143;DHT22;10509;46.476;7.134;2023-11-19T08:20:13;8.10;99.90
20143;DHT22;10509;46.476;7.134;2023-11-19T08:22:40;8.10;99.90
20143;DHT22;10509;46.476;7.134;2023-11-19T08:25:06;8.20;99.90
20143;DHT22;10509;46.476;7.134;2023-11-19T08:27:32;8.10;99.90
20143;DHT22;10509;46.476;7.134;2023-11-19T08:29:58;8.20;99.90
20143;DHT22;10509;46.476;7.134;2023-11-19T08:32:27;8.20;99.90
20143;DHT22;10509;46.476;7.134;2023-11-19T08:34:53;8.20;99.90
20143;DHT22;10509;46.476;7.134;2023-11-19T08:37:19;8.20;99.90
20143;DHT22;10509;46.476;7.134;2023-11-19T08:39:50;8.20;99.90
20143;DHT22;10509;46.476;7.134;2023-11-19T08:42:19;8.20;99.90
20143;DHT22;10509;46.476;7.134;2023-11-19T08:44:49;8.20;99.90
20143;DHT22;10509;46.476;7.134;2023-11-19T08:47:16;8.20;99.90
20143;DHT22;10509;46.476;7.134;2023-11-19T08:49:44;8.20;99.90
20143;DHT22;10509;46.476;7.134;2023-11-19T08:52:09;8.20;99.90
20143;DHT22;10509;46.476;7.134;2023-11-19T08:54:36;8.30;99.90
20143;DHT22;10509;46.476;7.134;2023-11-19T08:57:02;8.30;99.90
20143;DHT22;10509;46.476;7.134;2023-11-19T08:59:29;8.30;99.90
20143;DHT22;10509;46.476;7.134;2023-11-19T09:01:54;8.30;99.90
20143;DHT22;10509;46.476;7.134;2023-11-19T09:04:20;8.30;99.90
20143;DHT22;10509;46.476;7.134;2023-11-19T09:06:48;8.40;99.90
20143;DHT22;10509;46.476;7.134;2023-11-19T09:09:14;8.40;99.90
20143;DHT22;10509;46.476;7.134;2023-11-19T09:11:40;8.30;99.90
20143;DHT22;10509;46.476;7.134;2023-11-19T09:14:05;8.30;99.90
20143;DHT22;10509;46.476;7.134;2023-11-19T09:16:31;8.30;99.90
20143;DHT22;10509;46.476;7.134;2023-11-19T09:18:57;8.30;99.90
20143;DHT22;10509;46.476;7.134;2023-11-19T09:21:27;8.30;99.90
20143;DHT22;10509;46.476;7.134;2023-11-19T09:23:55;8.30;99.90
20143;DHT22;10509;46.476;7.134;2023-11-19T09:26:20;8.40;99.90
20143;DHT22;10509;46.476;7.134;2023-11-19T09:28:46;8.40;99.90
20143;DHT22;10509;46.476;7.134;2023-11-19T09:31:15;8.40;99.90
20143;DHT22;10509;46.476;7.134;2023-11-19T09:33:41;8.40;99.90
20143;DHT22;10509;46.476;7.134;2023-11-19T09:36:08;8.50;99.90
20143;DHT22;10509;46.476;7.134;2023-11-19T09:38:34;8.50;99.90
20143;DHT22;10509;46.476;7.134;2023-11-19T09:41:06;8.50;99.90
20143;DHT22;10509;46.476;7.134;2023-11-19T09:43:37;8.40;99.90
20143;DHT22;10509;46.476;7.134;2023-11-19T09:46:05;8.50;99.90
20143;DHT22;10509;46.476;7.134;2023-11-19T09:48:36;8.50;99.90
20143;DHT22;10509;46.476;7.134;2023-11-19T09:51:07;8.50;99.90
20143;DHT22;10509;46.476;7.134;2023-11-19T09:53:33;8.50;99.90
20143;DHT22;10509;46.476;7.134;2023-11-19T09:56:04;8.60;99.90
20143;DHT22;10509;46.476;7.134;2023-11-19T09:58:30;8.50;99.90
20143;DHT22;10509;46.476;7.134;2023-11-19T10:00:57;8.50;99.90
20143;DHT22;10509;46.476;7.134;2023-11-19T10:03:35;8.60;99.90
20143;DHT22;10509;46.476;7.134;2023-11-19T10:06:04;8.60;99.90
20143;DHT22;10509;46.476;7.134;2023-11-19T10:08:32;8.70;99.90
20143;DHT22;10509;46.476;7.134;2023-11-19T10:10:58;8.60;99.90
20143;DHT22;10509;46.476;7.134;2023-11-19T10:13:28;8.60;99.90
20143;DHT22;10509;46.476;7.134;2023-11-19T10:15:55;8.70;99.90
20143;DHT22;10509;46.476;7.134;2023-11-19T10:18:26;8.70;99.90
20143;DHT22;10509;46.476;7.134;2023-11-19T10:20:52;8.70;99.90
20143;DHT22;10509;46.476;7.134;2023-11-19T10:23:17;8.70;99.90
20143;DHT22;10509;46.476;7.134;2023-11-19T10:25:43;8.70;99.90
20143;DHT22;10509;46.476;7.134;2023-11-19T10:28:09;8.80;99.90
20143;DHT22;10509;46.476;7.134;2023-11-19T10:30:34;8.80;99.90
20143;DHT22;10509;46.476;7.134;2023-11-19T10:33:08;8.80;99.90
20143;DHT22;10509;46.476;7.134;2023-11-19T10:35:51;8.80;99.90
20143;DHT22;10509;46.476;7.134;2023-11-19T10:38:20;8.80;99.90
20143;DHT22;10509;46.476;7.134;2023-11-19T10:40:48;8.80;99.90
20143;DHT22;10509;46.476;7.134;2023-11-19T10:43:13;8.80;99.90
20143;DHT22;10509;46.476;7.134;2023-11-19T10:45:39;8.90;99.90
20143;DHT22;10509;46.476;7.134;2023-11-19T10:48:06;8.80;99.90
20143;DHT22;10509;46.476;7.134;2023-11-19T10:50:43;8.90;99.90
20143;DHT22;10509;46.476;7.134;2023-11-19T10:53:10;8.90;99.90
20143;DHT22;10509;46.476;7.134;2023-11-19T10:55:38;8.90;99.90
20143;DHT22;10509;46.476;7.134;2023-11-19T10:58:06;9.00;99.90
20143;DHT22;10509;46.476;7.134;2023-11-19T11:00:39;9.00;99.90
20143;DHT22;10509;46.476;7.134;2023-11-19T11:03:18;9.00;99.90
20143;DHT22;10509;46.476;7.134;2023-11-19T11:05:46;9.00;99.90
20143;DHT22;10509;46.476;7.134;2023-11-19T11:08:13;9.00;99.90
20143;DHT22;10509;46.476;7.134;2023-11-19T11:10:48;9.00;99.90
20143;DHT22;10509;46.476;7.134;2023-11-19T11:13:17;9.00;99.90
20143;DHT22;10509;46.476;7.134;2023-11-19T11:15:44;9.00;99.90
20143;DHT22;10509;46.476;7.134;2023-11-19T11:18:12;8.90;99.90
20143;DHT22;10509;46.476;7.134;2023-11-19T11:20:39;9.00;99.90
20143;DHT22;10509;46.476;7.134;2023-11-19T11:29:10;9.00;99.90
20143;DHT22;10509;46.476;7.134;2023-11-19T11:37:01;9.00;99.90
20143;DHT22;10509;46.476;7.134;2023-11-19T11:39:29;9.00;99.90
20143;DHT22;10509;46.476;7.134;2023-11-19T11:42:32;9.00;99.90
20143;DHT22;10509;46.476;7.134;2023-11-19T11:45:10;9.00;99.90
20143;DHT22;10509;46.476;7.134;2023-11-19T11:50:19;9.00;99.90
20143;DHT22;10509;46.476;7.134;2023-11-19T11:57:57;9.10;99.90
20143;DHT22;10509;46.476;7.134;2023-11-19T12:00:27;9.10;99.90
20143;DHT22;10509;46.476;7.134;2023-11-19T12:03:01;9.10;99.90
20143;DHT22;10509;46.476;7.134;2023-11-19T12:05:28;9.10;99.90
20143;DHT22;10509;46.476;7.134;2023-11-19T12:08:00;9.20;99.90
20143;DHT22;10509;46.476;7.134;2023-11-19T12:10:29;9.20;99.90
20143;DHT22;10509;46.476;7.134;2023-11-19T12:13:00;9.20;99.90
20143;DHT22;10509;46.476;7.134;2023-11-19T12:15:26;9.30;99.90
20143;DHT22;10509;46.476;7.134;2023-11-19T12:17:54;9.30;99.90
20143;DHT22;10509;46.476;7.134;2023-11-19T12:20:26;9.30;99.90
20143;DHT22;10509;46.476;7.134;2023-11-19T12:22:53;9.30;99.90
20143;DHT22;10509;46.476;7.134;2023-11-19T12:25:20;9.30;99.90
20143;DHT22;10509;46.476;7.134;2023-11-19T12:27:47;9.30;99.90
20143;DHT22;10509;46.476;7.134;2023-11-19T12:30:23;9.30;99.90
20143;DHT22;10509;46.476;7.134;2023-11-19T12:32:51;9.30;99.90
20143;DHT22;10509;46.476;7.134;2023-11-19T12:35:19;9.30;99.90
20143;DHT22;10509;46.476;7.134;2023-11-19T12:37:46;9.40;99.90
20143;DHT22;10509;46.476;7.134;2023-11-19T12:40:22;9.50;99.90
20143;DHT22;10509;46.476;7.134;2023-11-19T12:42:52;9.40;99.90
20143;DHT22;10509;46.476;7.134;2023-11-19T12:45:18;9.50;99.90
20143;DHT22;10509;46.476;7.134;2023-11-19T12:47:46;9.50;99.90
20143;DHT22;10509;46.476;7.134;2023-11-19T12:50:16;9.50;99.90
20143;DHT22;10509;46.476;7.134;2023-11-19T12:52:57;9.50;99.90
20143;DHT22;10509;46.476;7.134;2023-11-19T12:55:27;9.50;99.90
20143;DHT22;10509;46.476;7.134;2023-11-19T12:57:53;9.50;99.90
20143;DHT22;10509;46.476;7.134;2023-11-19T13:00:25;9.50;99.90
20143;DHT22;10509;46.476;7.134;2023-11-19T13:02:55;9.50;99.90
20143;DHT22;10509;46.476;7.134;2023-11-19T13:05:29;9.60;99.90
20143;DHT22;10509;46.476;7.134;2023-11-19T13:08:09;9.60;99.90
20143;DHT22;10509;46.476;7.134;2023-11-19T13:10:52;9.60;99.90
20143;DHT22;10509;46.476;7.134;2023-11-19T13:13:18;9.60;99.90
20143;DHT22;10509;46.476;7.134;2023-11-19T13:15:44;9.60;99.90
20143;DHT22;10509;46.476;7.134;2023-11-19T13:18:10;9.60;99.90
20143;DHT22;10509;46.476;7.134;2023-11-19T13:20:36;9.70;99.90
20143;DHT22;10509;46.476;7.134;2023-11-19T13:23:06;9.70;99.90
20143;DHT22;10509;46.476;7.134;2023-11-19T13:25:35;9.70;99.90
20143;DHT22;10509;46.476;7.134;2023-11-19T13:28:01;9.70;99.90
20143;DHT22;10509;46.476;7.134;2023-11-19T13:30:27;9.70;99.90
20143;DHT22;10509;46.476;7.134;2023-11-19T13:32:54;9.70;99.90
20143;DHT22;10509;46.476;7.134;2023-11-19T13:35:21;9.70;99.90
20143;DHT22;10509;46.476;7.134;2023-11-19T13:37:47;9.70;99.90
20143;DHT22;10509;46.476;7.134;2023-11-19T13:40:13;9.80;99.90
20143;DHT22;10509;46.476;7.134;2023-11-19T13:42:42;9.80;99.90
20143;DHT22;10509;46.476;7.134;2023-11-19T13:45:10;9.80;99.90
20143;DHT22;10509;46.476;7.134;2023-11-19T13:47:38;9.80;99.90
20143;DHT22;10509;46.476;7.134;2023-11-19T13:50:16;9.80;99.90
20143;DHT22;10509;46.476;7.134;2023-11-19T13:52:43;9.80;99.90
20143;DHT22;10509;46.476;7.134;2023-11-19T13:55:12;9.80;99.90
20143;DHT22;10509;46.476;7.134;2023-11-19T13:57:39;9.80;99.90
20143;DHT22;10509;46.476;7.134;2023-11-19T14:00:06;9.70;99.90
20143;DHT22;10509;46.476;7.134;2023-11-19T14:02:33;9.70;99.90
20143;DHT22;10509;46.476;7.134;2023-11-19T14:04:59;9.70;99.90
20143;DHT22;10509;46.476;7.134;2023-11-19T14:07:25;9.70;99.90
20143;DHT22;10509;46.476;7.134;2023-11-19T14:09:51;9.80;99.90
20143;DHT22;10509;46.476;7.134;2023-11-19T14:12:16;9.80;99.90
20143;DHT22;10509;46.476;7.134;2023-11-19T14:14:43;9.90;99.90
20143;DHT22;10509;46.476;7.134;2023-11-19T14:17:09;9.90;99.90
20143;DHT22;10509;46.476;7.134;2023-11-19T14:19:36;10.00;99.90
20143;DHT22;10509;46.476;7.134;2023-11-19T14:22:02;10.00;99.90
20143;DHT22;10509;46.476;7.134;2023-11-19T14:24:28;10.00;99.90
20143;DHT22;10509;46.476;7.134;2023-11-19T14:26:53;10.00;99.90
20143;DHT22;10509;46.476;7.134;2023-11-19T14:29:19;10.10;99.90
20143;DHT22;10509;46.476;7.134;2023-11-19T14:31:44;10.00;99.90
20143;DHT22;10509;46.476;7.134;2023-11-19T14:34:10;10.10;99.90
20143;DHT22;10509;46.476;7.134;2023-11-19T14:36:36;10.10;99.90
20143;DHT22;10509;46.476;7.134;2023-11-19T14:39:01;10.10;99.90
20143;DHT22;10509;46.476;7.134;2023-11-19T14:41:27;10.10;99.90
20143;DHT22;10509;46.476;7.134;2023-11-19T14:43:52;10.10;99.90
20143;DHT22;10509;46.476;7.134;2023-11-19T14:46:18;10.10;99.90
20143;DHT22;10509;46.476;7.134;2023-11-19T14:48:44;10.10;99.90
20143;DHT22;10509;46.476;7.134;2023-11-19T14:51:10;10.10;99.90
20143;DHT22;10509;46.476;7.134;2023-11-19T14:53:35;10.00;99.90
20143;DHT22;10509;46.476;7.134;2023-11-19T14:56:01;10.00;99.90
20143;DHT22;10509;46.476;7.134;2023-11-19T14:58:27;10.00;99.90
20143;DHT22;10509;46.476;7.134;2023-11-19T15:00:53;10.00;99.90
20143;DHT22;10509;46.476;7.134;2023-11-19T15:03:19;10.00;99.90
20143;DHT22;10509;46.476;7.134;2023-11-19T15:05:45;10.10;99.90
20143;DHT22;10509;46.476;7.134;2023-11-19T15:08:14;10.10;99.90
20143;DHT22;10509;46.476;7.134;2023-11-19T15:10:44;10.00;99.90
20143;DHT22;10509;46.476;7.134;2023-11-19T15:13:10;10.10;99.90
20143;DHT22;10509;46.476;7.134;2023-11-19T15:15:36;10.10;99.90
20143;DHT22;10509;46.476;7.134;2023-11-19T15:18:02;10.10;99.90
20143;DHT22;10509;46.476;7.134;2023-11-19T15:20:27;10.10;99.90
20143;DHT22;10509;46.476;7.134;2023-11-19T15:22:57;10.10;99.90
20143;DHT22;10509;46.476;7.134;2023-11-19T15:25:22;10.10;99.90
20143;DHT22;10509;46.476;7.134;2023-11-19T15:27:48;10.10;99.90
20143;DHT22;10509;46.476;7.134;2023-11-19T15:30:14;10.10;99.90
20143;DHT22;10509;46.476;7.134;2023-11-19T15:32:41;10.10;99.90
20143;DHT22;10509;46.476;7.134;2023-11-19T15:35:11;10.10;99.90
20143;DHT22;10509;46.476;7.134;2023-11-19T15:37:37;10.10;99.90
20143;DHT22;10509;46.476;7.134;2023-11-19T15:40:06;10.10;99.90
20143;DHT22;10509;46.476;7.134;2023-11-19T15:42:34;10.10;99.90
20143;DHT22;10509;46.476;7.134;2023-11-19T15:44:59;10.10;99.90
20143;DHT22;10509;46.476;7.134;2023-11-19T15:47:25;10.10;99.90
20143;DHT22;10509;46.476;7.134;2023-11-19T15:49:51;10.10;99.90
20143;DHT22;10509;46.476;7.134;2023-11-19T15:52:16;10.10;99.90
20143;DHT22;10509;46.476;7.134;2023-11-19T15:54:42;10.10;99.90
20143;DHT22;10509;46.476;7.134;2023-11-19T15:57:07;10.00;99.90
20143;DHT22;10509;46.476;7.134;2023-11-19T15:59:33;10.10;99.90
20143;DHT22;10509;46.476;7.134;2023-11-19T16:01:59;10.10;99.90
20143;DHT22;10509;46.476;7.134;2023-11-19T16:04:25;10.20;99.90